Yuedian 58 — BYFE — position and weather

sailwx.info

Track history (hours):
 
Tides and Currents Weather Stations Pressure Air Temp Water Temp Dewpoint Dewpoint Depression Visibility Wind Speed Wind Dir Waves Ship Positions

Yuedian 58

Last reported at 2014-Nov-22 13:05 UTC. Time now 2014-Nov-24 01:20 UTC.
Position N 36°44' E 123°09'.

Length 190 m; draft 11.8 m.

Type: Cargo ship. MMSI: 414008000.

Date/timePositionNaut miles runAvg speedWind from/ knotsBaromVisibWave heightAir tempDewpointWater temp
2014-Nov-22 13:05N 36°44' E 123°09'712.6
2014-Nov-22 12:33N 36°51' E 123°09'1311.9
2014-Nov-22 11:29N 37°04' E 123°10'1111.2
2014-Nov-22 10:32N 37°14' E 123°08'1010.6
2014-Nov-22 09:32N 37°24' E 123°03'3610.7
2014-Nov-22 06:13N 37°51' E 122°34'1412.6
2014-Nov-22 05:08N 37°56' E 122°18'1112.6
2014-Nov-22 04:16N 37°60' E 122°05'1312.3
2014-Nov-22 03:14N 38°05' E 121°50'12811.7
2014-Nov-21 16:17N 38°44' E 119°15'3511.0
2014-Nov-21 13:06N 38°49' E 118°31'610.1
2014-Nov-21 12:29N 38°55' E 118°28'  
2014-Nov-18 06:23N 38°25' E 121°18'10712.1
2014-Nov-17 21:33N 37°09' E 122°53'1313.0
2014-Nov-17 20:33N 36°56' E 122°54'  
2014-Nov-15 02:21N 24°45' E 119°16'910.8
2014-Nov-15 01:32N 24°39' E 119°08'77 9.6
2014-Nov-14 17:32N 23°49' E 118°04'1211.2
2014-Nov-14 16:30N 23°41' E 117°55'24510.6
2014-Nov-13 17:27N 22°00' E 113°53'1011.6
2014-Nov-13 16:33N 22°09' E 113°48'1010.1
2014-Nov-13 15:33N 22°20' E 113°48'1413.5
2014-Nov-13 14:33N 22°33' E 113°44'1111.3
2014-Nov-13 13:33N 22°43' E 113°40'9 9.3
2014-Nov-13 12:33N 22°51' E 113°34'10 9.8
2014-Nov-13 11:32N 23°00' E 113°31'3 2.6
2014-Nov-13 10:31N 23°03' E 113°31'0 0.0
2014-Nov-13 09:25N 23°03' E 113°31'0 0.0
2014-Nov-13 08:13N 23°03' E 113°31'0 0.0
2014-Nov-13 07:25N 23°03' E 113°31'0 0.0
2014-Nov-13 06:25N 23°03' E 113°31'0 0.0
2014-Nov-13 05:31N 23°03' E 113°31'0 0.0
2014-Nov-13 04:31N 23°03' E 113°31'0 0.0
2014-Nov-13 03:31N 23°03' E 113°31'0 0.0
2014-Nov-13 02:31N 23°03' E 113°31'0 0.0
2014-Nov-13 01:31N 23°03' E 113°31'0 0.0
2014-Nov-13 00:31N 23°03' E 113°31'0 0.0
2014-Nov-12 23:25N 23°03' E 113°31'0 0.0
2014-Nov-12 22:19N 23°03' E 113°31'0 0.0
2014-Nov-12 21:25N 23°03' E 113°31'0 0.0
2014-Nov-12 20:31N 23°03' E 113°31'0 0.0
2014-Nov-12 19:31N 23°03' E 113°31'0 0.0
2014-Nov-12 18:31N 23°03' E 113°31'0 0.0
2014-Nov-12 17:30N 23°03' E 113°31'0 0.0
2014-Nov-12 16:30N 23°03' E 113°31'0 0.0
2014-Nov-12 15:12N 23°03' E 113°31'0 0.0
2014-Nov-12 14:30N 23°03' E 113°31'0 0.0
2014-Nov-12 13:30N 23°03' E 113°31'  
Track history (hours):
 
Tides and Currents Weather Stations Pressure Air Temp Water Temp Dewpoint Dewpoint Depression Visibility Wind Speed Wind Dir Waves Ship Positions

Yuedian 58

Last reported at 2014-Nov-22 13:05 UTC. Time now 2014-Nov-24 01:20 UTC.
Position N 36°44' E 123°09'.

Length 190 m; draft 11.8 m.

Type: Cargo ship. MMSI: 414008000.

Date/timePositionNaut miles runAvg speedWind from/ knotsBaromVisibWave heightAir tempDewpointWater temp
2014-Nov-22 13:05N 36°44' E 123°09'712.6
2014-Nov-22 12:33N 36°51' E 123°09'1311.9
2014-Nov-22 11:29N 37°04' E 123°10'1111.2
2014-Nov-22 10:32N 37°14' E 123°08'1010.6
2014-Nov-22 09:32N 37°24' E 123°03'3610.7
2014-Nov-22 06:13N 37°51' E 122°34'1412.6
2014-Nov-22 05:08N 37°56' E 122°18'1112.6
2014-Nov-22 04:16N 37°60' E 122°05'1312.3
2014-Nov-22 03:14N 38°05' E 121°50'12811.7
2014-Nov-21 16:17N 38°44' E 119°15'3511.0
2014-Nov-21 13:06N 38°49' E 118°31'610.1
2014-Nov-21 12:29N 38°55' E 118°28'  
2014-Nov-18 06:23N 38°25' E 121°18'10712.1
2014-Nov-17 21:33N 37°09' E 122°53'1313.0
2014-Nov-17 20:33N 36°56' E 122°54'  
2014-Nov-15 02:21N 24°45' E 119°16'910.8
2014-Nov-15 01:32N 24°39' E 119°08'77 9.6
2014-Nov-14 17:32N 23°49' E 118°04'1211.2
2014-Nov-14 16:30N 23°41' E 117°55'24510.6
2014-Nov-13 17:27N 22°00' E 113°53'1011.6
2014-Nov-13 16:33N 22°09' E 113°48'1010.1
2014-Nov-13 15:33N 22°20' E 113°48'1413.5
2014-Nov-13 14:33N 22°33' E 113°44'1111.3
2014-Nov-13 13:33N 22°43' E 113°40'9 9.3
2014-Nov-13 12:33N 22°51' E 113°34'10 9.8
2014-Nov-13 11:32N 23°00' E 113°31'3 2.6
2014-Nov-13 10:31N 23°03' E 113°31'0 0.0
2014-Nov-13 09:25N 23°03' E 113°31'0 0.0
2014-Nov-13 08:13N 23°03' E 113°31'0 0.0
2014-Nov-13 07:25N 23°03' E 113°31'0 0.0
2014-Nov-13 06:25N 23°03' E 113°31'0 0.0
2014-Nov-13 05:31N 23°03' E 113°31'0 0.0
2014-Nov-13 04:31N 23°03' E 113°31'0 0.0
2014-Nov-13 03:31N 23°03' E 113°31'0 0.0
2014-Nov-13 02:31N 23°03' E 113°31'0 0.0
2014-Nov-13 01:31N 23°03' E 113°31'0 0.0
2014-Nov-13 00:31N 23°03' E 113°31'0 0.0
2014-Nov-12 23:25N 23°03' E 113°31'0 0.0
2014-Nov-12 22:19N 23°03' E 113°31'0 0.0
2014-Nov-12 21:25N 23°03' E 113°31'0 0.0
2014-Nov-12 20:31N 23°03' E 113°31'0 0.0
2014-Nov-12 19:31N 23°03' E 113°31'0 0.0
2014-Nov-12 18:31N 23°03' E 113°31'0 0.0
2014-Nov-12 17:30N 23°03' E 113°31'0 0.0
2014-Nov-12 16:30N 23°03' E 113°31'0 0.0
2014-Nov-12 15:12N 23°03' E 113°31'0 0.0
2014-Nov-12 14:30N 23°03' E 113°31'0 0.0
2014-Nov-12 13:30N 23°03' E 113°31'  

Dump ship's entire track history